createdAt,value
2023-04-05T00:04:21.030Z,6.95
2023-04-05T00:11:22.967Z,6.94
2023-04-05T00:18:25.297Z,6.81
2023-04-05T00:25:26.882Z,6.72
2023-04-05T00:32:28.459Z,6.64
2023-04-05T00:39:30.265Z,6.52
2023-04-05T00:46:34.726Z,6.49
2023-04-05T00:53:36.287Z,6.41
2023-04-05T01:00:38.860Z,6.38
2023-04-05T01:07:58.714Z,6.29
2023-04-05T01:15:00.665Z,6.24
2023-04-05T01:22:17.366Z,6.34
2023-04-05T01:29:37.765Z,6.30
2023-04-05T01:36:54.649Z,6.18
2023-04-05T01:43:56.598Z,5.99
2023-04-05T01:50:58.127Z,6.02
2023-04-05T01:57:59.732Z,5.96
2023-04-05T02:05:01.952Z,6.09
2023-04-05T02:12:03.636Z,6.12
2023-04-05T02:19:05.894Z,6.15
2023-04-05T02:26:07.475Z,6.14
2023-04-05T02:33:10.392Z,6.19
2023-04-05T02:40:13.482Z,6.34
2023-04-05T02:47:21.189Z,6.36
2023-04-05T02:54:27.722Z,6.47
2023-04-05T03:01:36.285Z,6.46
2023-04-05T03:08:46.475Z,6.58
2023-04-05T03:15:54.044Z,6.64
2023-04-05T03:22:56.322Z,6.63
2023-04-05T03:30:03.529Z,6.61
2023-04-05T03:37:08.311Z,6.52
2023-04-05T03:44:24.518Z,6.60
2023-04-05T03:51:27.059Z,6.64
2023-04-05T03:58:28.649Z,6.66
2023-04-05T04:05:38.946Z,6.71
2023-04-05T04:12:41.980Z,6.72
2023-04-05T04:19:44.580Z,6.78
2023-04-05T04:26:58.283Z,6.79
2023-04-05T04:34:21.195Z,6.75
2023-04-05T04:41:46.953Z,6.75
2023-04-05T04:49:07.248Z,6.85
2023-04-05T04:56:09.629Z,6.76
2023-04-05T05:03:11.424Z,6.76
2023-04-05T05:10:16.034Z,6.75
2023-04-05T05:17:17.596Z,6.78
2023-04-05T05:24:19.515Z,6.87
2023-04-05T05:31:21.260Z,6.77
2023-04-05T05:38:23.515Z,6.73
2023-04-05T05:45:25.191Z,6.72
2023-04-05T05:52:26.830Z,6.96
2023-04-05T05:59:28.454Z,7.10
2023-04-05T06:06:30.609Z,7.05
2023-04-05T06:13:32.144Z,7.10
2023-04-05T06:20:33.757Z,7.32
2023-04-05T06:27:35.359Z,7.39
2023-04-05T06:34:36.951Z,7.40
2023-04-05T06:41:38.501Z,7.24
2023-04-05T06:48:40.341Z,7.69
2023-04-05T06:55:42.625Z,7.91
2023-04-05T07:02:44.269Z,8.15
2023-04-05T07:09:46.021Z,8.16
2023-04-05T07:16:48.643Z,8.44
2023-04-05T07:23:53.630Z,8.68
2023-04-05T07:30:55.244Z,8.67
2023-04-05T07:37:56.962Z,8.95
2023-04-05T07:44:58.618Z,8.98
2023-04-05T07:52:00.374Z,9.33
2023-04-05T07:59:01.964Z,10.02
2023-04-05T08:06:13.335Z,10.64
2023-04-05T08:13:14.965Z,10.61
2023-04-05T08:20:16.608Z,11.21
2023-04-05T08:27:18.686Z,11.72
2023-04-05T08:34:20.360Z,12.11
2023-04-05T08:41:23.424Z,12.65
2023-04-05T08:48:25.740Z,13.11
2023-04-05T08:55:27.286Z,12.31
2023-04-05T09:02:28.904Z,13.49
2023-04-05T09:09:32.519Z,13.67
2023-04-05T09:16:37.146Z,14.23
2023-04-05T09:23:38.856Z,14.71
2023-04-05T09:30:45.387Z,14.99
2023-04-05T09:37:57.394Z,15.73
2023-04-05T09:45:02.200Z,15.08
2023-04-05T09:52:23.954Z,14.88
2023-04-05T09:59:25.881Z,15.33
2023-04-05T10:06:38.703Z,16.49
2023-04-05T10:13:40.563Z,17.73
2023-04-05T10:20:42.629Z,18.08
2023-04-05T10:27:48.524Z,16.95
2023-04-05T10:34:56.492Z,16.16
2023-04-05T10:42:02.979Z,16.11
2023-04-05T10:49:28.006Z,15.25
2023-04-05T10:56:29.615Z,14.66
2023-04-05T11:03:50.922Z,14.36
2023-04-05T11:10:52.569Z,13.91
2023-04-05T11:18:09.387Z,12.53
2023-04-05T11:25:11.050Z,13.71
2023-04-05T11:32:13.489Z,14.72
2023-04-05T11:39:18.044Z,15.48
2023-04-05T11:46:19.726Z,14.87
2023-04-05T11:53:21.363Z,14.28
2023-04-05T12:00:22.991Z,13.80
2023-04-05T12:07:36.679Z,13.64
2023-04-05T12:14:38.857Z,13.80
2023-04-05T12:21:40.401Z,13.43
2023-04-05T12:28:57.822Z,13.38
2023-04-05T12:36:04.469Z,13.29
2023-04-05T12:43:07.231Z,13.73
2023-04-05T12:50:16.014Z,14.03
2023-04-05T12:57:17.564Z,14.40
2023-04-05T13:04:19.251Z,13.47
2023-04-05T13:11:20.824Z,13.81
2023-04-05T13:18:22.430Z,14.17
2023-04-05T13:25:24.042Z,12.70
2023-04-05T13:32:25.646Z,13.93
2023-04-05T13:39:27.160Z,14.74
2023-04-05T13:46:28.784Z,14.91
2023-04-05T13:53:30.410Z,15.73
2023-04-05T14:00:32.055Z,17.04
2023-04-05T14:07:33.612Z,17.66
2023-04-05T14:14:35.161Z,17.85
2023-04-05T14:21:37.226Z,18.79
2023-04-05T14:28:38.848Z,19.02
2023-04-05T14:35:40.647Z,18.89
2023-04-05T14:42:49.400Z,18.87
2023-04-05T14:49:51.923Z,19.45
2023-04-05T14:56:53.521Z,19.66
2023-04-05T15:03:55.200Z,18.88
2023-04-05T15:10:56.798Z,16.93
2023-04-05T15:17:58.434Z,16.25
2023-04-05T15:25:00.191Z,15.63
2023-04-05T15:32:02.770Z,15.55
2023-04-05T15:39:05.189Z,15.23
2023-04-05T15:46:07.017Z,14.84
2023-04-05T15:53:08.658Z,14.52
2023-04-05T16:00:11.001Z,14.66
2023-04-05T16:07:12.788Z,15.29
2023-04-05T16:14:14.617Z,15.49
2023-04-05T16:21:16.856Z,15.08
2023-04-05T16:28:18.405Z,14.88
2023-04-05T16:35:20.467Z,14.68
2023-04-05T16:42:22.035Z,14.51
2023-04-05T16:49:23.658Z,14.21
2023-04-05T16:56:25.270Z,14.07
2023-04-05T17:03:27.313Z,14.06
2023-04-05T17:10:29.108Z,13.83
2023-04-05T17:17:31.075Z,13.59
2023-04-05T17:24:36.257Z,13.30
2023-04-05T17:31:38.106Z,13.19
2023-04-05T17:38:39.765Z,12.91
2023-04-05T17:45:41.385Z,12.83
2023-04-05T17:52:43.048Z,12.66
2023-04-05T17:59:44.771Z,12.57
2023-04-05T18:06:47.206Z,12.66
2023-04-05T18:13:48.826Z,12.56
2023-04-05T18:20:53.936Z,12.53
2023-04-05T18:27:55.935Z,12.40
2023-04-05T18:34:57.677Z,12.15
2023-04-05T18:41:59.478Z,12.08
2023-04-05T18:49:01.120Z,12.13
2023-04-05T18:56:02.709Z,12.13
2023-04-05T19:03:04.369Z,12.14
2023-04-05T19:10:06.765Z,11.72
2023-04-05T19:17:09.353Z,11.85
2023-04-05T19:24:13.944Z,11.79
2023-04-05T19:31:16.292Z,11.91
2023-04-05T19:38:18.166Z,11.79
2023-04-05T19:45:26.832Z,11.88
2023-04-05T19:52:34.539Z,11.73
2023-04-05T19:59:36.184Z,11.54
2023-04-05T20:06:37.926Z,11.38
2023-04-05T20:13:50.543Z,11.54
2023-04-05T20:20:53.692Z,11.47
2023-04-05T20:27:55.413Z,11.39
2023-04-05T20:34:56.972Z,11.39
2023-04-05T20:41:58.676Z,11.33
2023-04-05T20:49:00.247Z,11.04
2023-04-05T20:56:05.307Z,11.10
2023-04-05T21:03:07.544Z,10.84
2023-04-05T21:10:09.688Z,10.71
2023-04-05T21:17:11.396Z,10.79
2023-04-05T21:24:12.989Z,10.88
2023-04-05T21:31:14.530Z,10.95
2023-04-05T21:38:16.500Z,11.07
2023-04-05T21:45:18.078Z,10.97
2023-04-05T21:52:19.673Z,10.80
2023-04-05T21:59:21.415Z,10.80
2023-04-05T22:06:23.060Z,10.72
2023-04-05T22:13:24.612Z,10.44
2023-04-05T22:20:26.428Z,10.56
2023-04-05T22:27:29.314Z,10.49
2023-04-05T22:34:30.856Z,10.38
2023-04-05T22:41:32.509Z,10.40
2023-04-05T22:48:34.159Z,10.19
2023-04-05T22:55:37.948Z,10.10
2023-04-05T23:02:39.597Z,10.05
2023-04-05T23:09:41.210Z,10.10
2023-04-05T23:16:42.777Z,9.98
2023-04-05T23:23:44.424Z,10.07
2023-04-05T23:30:46.092Z,9.82
2023-04-05T23:37:47.738Z,9.85
2023-04-05T23:44:49.283Z,9.75
2023-04-05T23:51:51.212Z,9.88
2023-04-05T23:58:52.778Z,9.81
